sensor_id;sensor_type;location;lat;lon;timestamp;P1;durP1;ratioP1;P2;durP2;ratioP2
51010;SDS011;37038;50.182;8.624;2023-05-10T00:00:39;1.10;;;1.00;;
51010;SDS011;37038;50.182;8.624;2023-05-10T00:03:27;1.17;;;1.00;;
51010;SDS011;37038;50.182;8.624;2023-05-10T00:06:15;1.05;;;0.95;;
51010;SDS011;37038;50.182;8.624;2023-05-10T00:09:02;0.90;;;0.90;;
51010;SDS011;37038;50.182;8.624;2023-05-10T00:11:51;2.28;;;0.70;;
51010;SDS011;37038;50.182;8.624;2023-05-10T00:14:38;1.65;;;0.90;;
51010;SDS011;37038;50.182;8.624;2023-05-10T00:17:26;1.25;;;1.13;;
51010;SDS011;37038;50.182;8.624;2023-05-10T00:20:14;0.95;;;0.80;;
51010;SDS011;37038;50.182;8.624;2023-05-10T00:23:02;1.23;;;0.90;;
51010;SDS011;37038;50.182;8.624;2023-05-10T00:25:50;0.90;;;0.90;;
51010;SDS011;37038;50.182;8.624;2023-05-10T00:28:38;0.93;;;0.93;;
51010;SDS011;37038;50.182;8.624;2023-05-10T00:31:26;3.60;;;0.90;;
51010;SDS011;37038;50.182;8.624;2023-05-10T00:34:13;1.30;;;1.00;;
51010;SDS011;37038;50.182;8.624;2023-05-10T00:37:01;1.20;;;1.20;;
51010;SDS011;37038;50.182;8.624;2023-05-10T00:39:49;1.38;;;1.02;;
51010;SDS011;37038;50.182;8.624;2023-05-10T00:42:37;1.40;;;1.20;;
51010;SDS011;37038;50.182;8.624;2023-05-10T00:45:29;1.80;;;1.50;;
51010;SDS011;37038;50.182;8.624;2023-05-10T00:48:18;3.25;;;1.30;;
51010;SDS011;37038;50.182;8.624;2023-05-10T00:51:06;1.88;;;1.20;;
51010;SDS011;37038;50.182;8.624;2023-05-10T00:53:54;3.50;;;1.20;;
51010;SDS011;37038;50.182;8.624;2023-05-10T00:56:43;2.58;;;1.08;;
51010;SDS011;37038;50.182;8.624;2023-05-10T00:59:35;1.13;;;1.05;;
51010;SDS011;37038;50.182;8.624;2023-05-10T01:02:23;0.77;;;0.77;;
51010;SDS011;37038;50.182;8.624;2023-05-10T01:05:11;1.00;;;1.00;;
51010;SDS011;37038;50.182;8.624;2023-05-10T01:08:00;1.13;;;1.02;;
51010;SDS011;37038;50.182;8.624;2023-05-10T01:10:48;1.55;;;0.68;;
51010;SDS011;37038;50.182;8.624;2023-05-10T01:13:41;0.75;;;0.70;;
51010;SDS011;37038;50.182;8.624;2023-05-10T01:16:32;1.20;;;1.10;;
51010;SDS011;37038;50.182;8.624;2023-05-10T01:19:26;1.70;;;1.60;;
51010;SDS011;37038;50.182;8.624;2023-05-10T01:37:42;2.22;;;2.03;;
51010;SDS011;37038;50.182;8.624;2023-05-10T01:40:40;2.60;;;2.40;;
51010;SDS011;37038;50.182;8.624;2023-05-10T01:43:41;3.40;;;1.77;;
51010;SDS011;37038;50.182;8.624;2023-05-10T01:46:57;5.95;;;2.10;;
51010;SDS011;37038;50.182;8.624;2023-05-10T01:49:50;2.78;;;1.88;;
51010;SDS011;37038;50.182;8.624;2023-05-10T01:52:42;4.60;;;2.08;;
51010;SDS011;37038;50.182;8.624;2023-05-10T01:55:33;2.67;;;1.90;;
51010;SDS011;37038;50.182;8.624;2023-05-10T01:58:30;2.08;;;1.77;;
51010;SDS011;37038;50.182;8.624;2023-05-10T02:01:20;2.33;;;1.63;;
51010;SDS011;37038;50.182;8.624;2023-05-10T02:04:09;1.50;;;1.45;;
51010;SDS011;37038;50.182;8.624;2023-05-10T02:06:58;1.60;;;1.50;;
51010;SDS011;37038;50.182;8.624;2023-05-10T02:09:45;1.70;;;1.60;;
51010;SDS011;37038;50.182;8.624;2023-05-10T02:12:35;3.63;;;2.00;;
51010;SDS011;37038;50.182;8.624;2023-05-10T02:15:28;5.03;;;1.70;;
51010;SDS011;37038;50.182;8.624;2023-05-10T02:18:17;3.45;;;2.17;;
51010;SDS011;37038;50.182;8.624;2023-05-10T02:21:06;3.65;;;2.72;;
51010;SDS011;37038;50.182;8.624;2023-05-10T02:23:57;5.32;;;2.70;;
51010;SDS011;37038;50.182;8.624;2023-05-10T02:26:46;2.70;;;2.50;;
51010;SDS011;37038;50.182;8.624;2023-05-10T02:29:36;3.20;;;1.85;;
51010;SDS011;37038;50.182;8.624;2023-05-10T02:32:25;3.17;;;2.92;;
51010;SDS011;37038;50.182;8.624;2023-05-10T02:35:14;3.65;;;2.80;;
51010;SDS011;37038;50.182;8.624;2023-05-10T02:38:02;3.05;;;2.85;;
51010;SDS011;37038;50.182;8.624;2023-05-10T02:40:52;3.92;;;3.35;;
51010;SDS011;37038;50.182;8.624;2023-05-10T02:43:40;5.53;;;3.58;;
51010;SDS011;37038;50.182;8.624;2023-05-10T02:46:30;4.35;;;3.47;;
51010;SDS011;37038;50.182;8.624;2023-05-10T02:49:18;5.07;;;3.30;;
51010;SDS011;37038;50.182;8.624;2023-05-10T02:52:06;9.25;;;3.60;;
51010;SDS011;37038;50.182;8.624;2023-05-10T02:54:58;5.85;;;3.08;;
51010;SDS011;37038;50.182;8.624;2023-05-10T02:57:51;5.13;;;3.57;;
51010;SDS011;37038;50.182;8.624;2023-05-10T03:00:41;3.92;;;3.17;;
51010;SDS011;37038;50.182;8.624;2023-05-10T03:03:29;5.38;;;4.15;;
51010;SDS011;37038;50.182;8.624;2023-05-10T03:06:17;4.88;;;3.35;;
51010;SDS011;37038;50.182;8.624;2023-05-10T03:09:04;3.53;;;3.20;;
51010;SDS011;37038;50.182;8.624;2023-05-10T03:12:15;5.15;;;3.05;;
51010;SDS011;37038;50.182;8.624;2023-05-10T03:18:29;6.65;;;3.67;;
51010;SDS011;37038;50.182;8.624;2023-05-10T03:21:37;4.40;;;3.33;;
51010;SDS011;37038;50.182;8.624;2023-05-10T03:24:30;4.53;;;3.80;;
51010;SDS011;37038;50.182;8.624;2023-05-10T03:27:22;4.65;;;4.05;;
51010;SDS011;37038;50.182;8.624;2023-05-10T03:30:11;4.40;;;4.00;;
51010;SDS011;37038;50.182;8.624;2023-05-10T03:33:06;7.57;;;4.82;;
51010;SDS011;37038;50.182;8.624;2023-05-10T03:35:54;6.57;;;5.18;;
51010;SDS011;37038;50.182;8.624;2023-05-10T03:38:41;5.47;;;4.25;;
51010;SDS011;37038;50.182;8.624;2023-05-10T03:41:29;7.60;;;4.30;;
51010;SDS011;37038;50.182;8.624;2023-05-10T03:44:17;5.35;;;4.93;;
51010;SDS011;37038;50.182;8.624;2023-05-10T03:47:04;5.40;;;4.90;;
51010;SDS011;37038;50.182;8.624;2023-05-10T03:49:52;7.32;;;5.18;;
51010;SDS011;37038;50.182;8.624;2023-05-10T03:52:40;6.47;;;5.85;;
51010;SDS011;37038;50.182;8.624;2023-05-10T03:55:28;6.78;;;5.03;;
51010;SDS011;37038;50.182;8.624;2023-05-10T03:58:16;8.75;;;5.38;;
51010;SDS011;37038;50.182;8.624;2023-05-10T04:01:04;10.50;;;6.53;;
51010;SDS011;37038;50.182;8.624;2023-05-10T04:03:51;8.93;;;6.22;;
51010;SDS011;37038;50.182;8.624;2023-05-10T04:06:39;8.07;;;5.80;;
51010;SDS011;37038;50.182;8.624;2023-05-10T04:09:27;6.70;;;6.05;;
51010;SDS011;37038;50.182;8.624;2023-05-10T04:12:14;7.57;;;6.00;;
51010;SDS011;37038;50.182;8.624;2023-05-10T04:15:02;7.47;;;5.85;;
51010;SDS011;37038;50.182;8.624;2023-05-10T04:17:50;6.45;;;5.18;;
51010;SDS011;37038;50.182;8.624;2023-05-10T04:20:40;5.80;;;5.25;;
51010;SDS011;37038;50.182;8.624;2023-05-10T04:23:28;5.68;;;5.07;;
51010;SDS011;37038;50.182;8.624;2023-05-10T04:26:15;5.22;;;4.70;;
51010;SDS011;37038;50.182;8.624;2023-05-10T04:29:03;5.50;;;5.00;;
51010;SDS011;37038;50.182;8.624;2023-05-10T04:31:54;5.68;;;4.30;;
51010;SDS011;37038;50.182;8.624;2023-05-10T04:34:44;7.20;;;4.95;;
51010;SDS011;37038;50.182;8.624;2023-05-10T04:37:31;5.72;;;4.57;;
51010;SDS011;37038;50.182;8.624;2023-05-10T04:40:19;5.95;;;5.35;;
51010;SDS011;37038;50.182;8.624;2023-05-10T04:43:07;8.10;;;4.75;;
51010;SDS011;37038;50.182;8.624;2023-05-10T04:45:56;7.18;;;4.88;;
51010;SDS011;37038;50.182;8.624;2023-05-10T04:48:43;4.80;;;4.40;;
51010;SDS011;37038;50.182;8.624;2023-05-10T04:51:31;6.40;;;5.53;;
51010;SDS011;37038;50.182;8.624;2023-05-10T04:54:19;4.72;;;4.32;;
51010;SDS011;37038;50.182;8.624;2023-05-10T04:57:07;5.15;;;4.65;;
51010;SDS011;37038;50.182;8.624;2023-05-10T04:59:54;7.43;;;5.00;;
51010;SDS011;37038;50.182;8.624;2023-05-10T05:02:44;4.60;;;4.20;;
51010;SDS011;37038;50.182;8.624;2023-05-10T05:05:38;6.55;;;4.35;;
51010;SDS011;37038;50.182;8.624;2023-05-10T05:08:38;5.82;;;4.40;;
51010;SDS011;37038;50.182;8.624;2023-05-10T05:11:26;7.03;;;4.35;;
51010;SDS011;37038;50.182;8.624;2023-05-10T05:14:14;4.88;;;4.47;;
51010;SDS011;37038;50.182;8.624;2023-05-10T05:17:03;5.45;;;4.03;;
51010;SDS011;37038;50.182;8.624;2023-05-10T05:19:52;7.10;;;4.65;;
51010;SDS011;37038;50.182;8.624;2023-05-10T05:22:39;5.63;;;4.82;;
51010;SDS011;37038;50.182;8.624;2023-05-10T05:25:28;5.95;;;4.50;;
51010;SDS011;37038;50.182;8.624;2023-05-10T05:28:15;7.40;;;4.25;;
51010;SDS011;37038;50.182;8.624;2023-05-10T05:31:04;5.18;;;4.60;;
51010;SDS011;37038;50.182;8.624;2023-05-10T05:33:52;8.75;;;5.60;;
51010;SDS011;37038;50.182;8.624;2023-05-10T05:36:40;5.28;;;4.78;;
51010;SDS011;37038;50.182;8.624;2023-05-10T05:39:27;7.10;;;5.30;;
51010;SDS011;37038;50.182;8.624;2023-05-10T05:42:15;5.20;;;4.70;;
51010;SDS011;37038;50.182;8.624;2023-05-10T05:45:04;9.38;;;5.20;;
51010;SDS011;37038;50.182;8.624;2023-05-10T05:47:52;6.40;;;5.90;;
51010;SDS011;37038;50.182;8.624;2023-05-10T05:50:42;10.57;;;5.22;;
51010;SDS011;37038;50.182;8.624;2023-05-10T05:53:30;8.50;;;5.25;;
51010;SDS011;37038;50.182;8.624;2023-05-10T05:56:18;6.75;;;5.35;;
51010;SDS011;37038;50.182;8.624;2023-05-10T05:59:14;9.70;;;5.72;;
51010;SDS011;37038;50.182;8.624;2023-05-10T06:02:02;7.45;;;5.72;;
51010;SDS011;37038;50.182;8.624;2023-05-10T06:04:50;6.35;;;4.95;;
51010;SDS011;37038;50.182;8.624;2023-05-10T06:07:37;7.43;;;5.45;;
51010;SDS011;37038;50.182;8.624;2023-05-10T06:10:25;8.63;;;5.93;;
51010;SDS011;37038;50.182;8.624;2023-05-10T06:13:12;9.20;;;5.80;;
51010;SDS011;37038;50.182;8.624;2023-05-10T06:16:00;6.35;;;5.63;;
51010;SDS011;37038;50.182;8.624;2023-05-10T06:18:49;5.88;;;5.38;;
51010;SDS011;37038;50.182;8.624;2023-05-10T06:21:37;5.40;;;4.90;;
51010;SDS011;37038;50.182;8.624;2023-05-10T06:24:25;5.72;;;5.22;;
51010;SDS011;37038;50.182;8.624;2023-05-10T06:27:14;5.95;;;5.18;;
51010;SDS011;37038;50.182;8.624;2023-05-10T06:30:01;5.65;;;5.15;;
51010;SDS011;37038;50.182;8.624;2023-05-10T06:33:00;6.10;;;4.75;;
51010;SDS011;37038;50.182;8.624;2023-05-10T06:35:48;6.78;;;5.32;;
51010;SDS011;37038;50.182;8.624;2023-05-10T06:38:36;7.10;;;5.03;;
51010;SDS011;37038;50.182;8.624;2023-05-10T06:41:24;4.95;;;4.45;;
51010;SDS011;37038;50.182;8.624;2023-05-10T06:44:11;8.02;;;4.68;;
51010;SDS011;37038;50.182;8.624;2023-05-10T06:47:00;6.95;;;4.43;;
51010;SDS011;37038;50.182;8.624;2023-05-10T06:49:50;8.57;;;4.97;;
51010;SDS011;37038;50.182;8.624;2023-05-10T06:52:38;5.20;;;4.22;;
51010;SDS011;37038;50.182;8.624;2023-05-10T06:55:26;7.90;;;4.55;;
51010;SDS011;37038;50.182;8.624;2023-05-10T06:58:14;7.15;;;4.15;;
51010;SDS011;37038;50.182;8.624;2023-05-10T07:01:04;5.80;;;3.75;;
51010;SDS011;37038;50.182;8.624;2023-05-10T07:03:55;10.13;;;4.53;;
51010;SDS011;37038;50.182;8.624;2023-05-10T07:06:44;9.30;;;4.35;;
51010;SDS011;37038;50.182;8.624;2023-05-10T07:09:36;5.30;;;4.50;;
51010;SDS011;37038;50.182;8.624;2023-05-10T07:12:24;4.82;;;3.70;;
51010;SDS011;37038;50.182;8.624;2023-05-10T07:15:12;6.13;;;4.22;;
51010;SDS011;37038;50.182;8.624;2023-05-10T07:18:00;8.32;;;4.30;;
51010;SDS011;37038;50.182;8.624;2023-05-10T07:20:54;6.20;;;4.47;;
51010;SDS011;37038;50.182;8.624;2023-05-10T07:23:48;7.00;;;4.18;;
51010;SDS011;37038;50.182;8.624;2023-05-10T07:26:48;8.52;;;4.40;;
51010;SDS011;37038;50.182;8.624;2023-05-10T07:29:38;9.43;;;4.70;;
51010;SDS011;37038;50.182;8.624;2023-05-10T07:32:26;10.80;;;5.13;;
51010;SDS011;37038;50.182;8.624;2023-05-10T07:35:22;12.93;;;5.90;;
51010;SDS011;37038;50.182;8.624;2023-05-10T07:38:13;12.65;;;4.95;;
51010;SDS011;37038;50.182;8.624;2023-05-10T07:41:01;6.68;;;5.07;;
51010;SDS011;37038;50.182;8.624;2023-05-10T07:43:49;9.23;;;5.25;;
51010;SDS011;37038;50.182;8.624;2023-05-10T07:46:37;6.90;;;4.90;;
51010;SDS011;37038;50.182;8.624;2023-05-10T07:49:25;6.57;;;4.93;;
51010;SDS011;37038;50.182;8.624;2023-05-10T07:52:13;8.15;;;5.32;;
51010;SDS011;37038;50.182;8.624;2023-05-10T07:55:09;9.10;;;5.22;;
51010;SDS011;37038;50.182;8.624;2023-05-10T07:57:57;7.88;;;5.18;;
51010;SDS011;37038;50.182;8.624;2023-05-10T08:00:44;7.57;;;4.60;;
51010;SDS011;37038;50.182;8.624;2023-05-10T08:03:32;4.57;;;4.18;;
51010;SDS011;37038;50.182;8.624;2023-05-10T08:06:20;6.70;;;3.72;;
51010;SDS011;37038;50.182;8.624;2023-05-10T08:09:09;7.18;;;4.10;;
51010;SDS011;37038;50.182;8.624;2023-05-10T08:11:58;8.45;;;4.15;;
51010;SDS011;37038;50.182;8.624;2023-05-10T08:14:48;5.82;;;4.47;;
51010;SDS011;37038;50.182;8.624;2023-05-10T08:17:36;10.70;;;3.88;;
51010;SDS011;37038;50.182;8.624;2023-05-10T08:20:47;7.03;;;3.40;;
51010;SDS011;37038;50.182;8.624;2023-05-10T08:23:35;4.18;;;3.15;;
51010;SDS011;37038;50.182;8.624;2023-05-10T08:26:23;4.47;;;3.30;;
51010;SDS011;37038;50.182;8.624;2023-05-10T08:32:05;5.30;;;2.88;;
51010;SDS011;37038;50.182;8.624;2023-05-10T08:34:56;10.40;;;3.97;;
51010;SDS011;37038;50.182;8.624;2023-05-10T08:37:43;4.07;;;2.58;;
51010;SDS011;37038;50.182;8.624;2023-05-10T08:40:34;6.30;;;3.00;;
51010;SDS011;37038;50.182;8.624;2023-05-10T08:43:28;4.03;;;3.08;;
51010;SDS011;37038;50.182;8.624;2023-05-10T08:46:21;3.88;;;2.83;;
51010;SDS011;37038;50.182;8.624;2023-05-10T08:49:13;3.55;;;3.22;;
51010;SDS011;37038;50.182;8.624;2023-05-10T08:52:05;6.00;;;3.10;;
51010;SDS011;37038;50.182;8.624;2023-05-10T08:54:57;6.28;;;3.88;;
51010;SDS011;37038;50.182;8.624;2023-05-10T08:57:46;5.53;;;3.55;;
51010;SDS011;37038;50.182;8.624;2023-05-10T09:00:34;4.90;;;3.33;;
51010;SDS011;37038;50.182;8.624;2023-05-10T09:03:25;5.22;;;3.28;;
51010;SDS011;37038;50.182;8.624;2023-05-10T09:06:14;8.38;;;3.40;;
51010;SDS011;37038;50.182;8.624;2023-05-10T09:09:03;10.63;;;4.00;;
51010;SDS011;37038;50.182;8.624;2023-05-10T09:11:51;14.55;;;5.25;;
51010;SDS011;37038;50.182;8.624;2023-05-10T09:14:42;8.32;;;4.93;;
51010;SDS011;37038;50.182;8.624;2023-05-10T09:17:34;7.10;;;4.10;;
51010;SDS011;37038;50.182;8.624;2023-05-10T09:20:23;7.72;;;4.13;;
51010;SDS011;37038;50.182;8.624;2023-05-10T09:23:11;5.03;;;3.53;;
51010;SDS011;37038;50.182;8.624;2023-05-10T09:26:03;5.50;;;3.63;;
51010;SDS011;37038;50.182;8.624;2023-05-10T09:28:56;5.40;;;3.33;;
51010;SDS011;37038;50.182;8.624;2023-05-10T09:34:37;6.75;;;3.70;;
51010;SDS011;37038;50.182;8.624;2023-05-10T09:37:31;5.90;;;3.30;;
51010;SDS011;37038;50.182;8.624;2023-05-10T09:40:22;8.18;;;3.38;;
51010;SDS011;37038;50.182;8.624;2023-05-10T09:43:14;6.07;;;3.47;;
51010;SDS011;37038;50.182;8.624;2023-05-10T09:48:55;4.53;;;2.60;;
51010;SDS011;37038;50.182;8.624;2023-05-10T09:51:43;10.27;;;3.83;;
51010;SDS011;37038;50.182;8.624;2023-05-10T09:54:31;3.47;;;2.55;;
51010;SDS011;37038;50.182;8.624;2023-05-10T09:57:20;4.68;;;2.47;;
51010;SDS011;37038;50.182;8.624;2023-05-10T10:00:15;2.92;;;2.10;;
51010;SDS011;37038;50.182;8.624;2023-05-10T10:03:07;2.85;;;1.58;;
51010;SDS011;37038;50.182;8.624;2023-05-10T10:06:05;3.60;;;1.50;;
51010;SDS011;37038;50.182;8.624;2023-05-10T10:09:15;2.20;;;1.50;;
51010;SDS011;37038;50.182;8.624;2023-05-10T10:12:47;3.75;;;2.33;;
51010;SDS011;37038;50.182;8.624;2023-05-10T10:15:37;4.72;;;2.53;;
51010;SDS011;37038;50.182;8.624;2023-05-10T10:18:25;5.32;;;2.30;;
51010;SDS011;37038;50.182;8.624;2023-05-10T10:21:15;8.38;;;2.67;;
51010;SDS011;37038;50.182;8.624;2023-05-10T10:24:03;5.90;;;2.17;;
51010;SDS011;37038;50.182;8.624;2023-05-10T10:26:55;3.03;;;2.30;;
51010;SDS011;37038;50.182;8.624;2023-05-10T10:30:07;4.53;;;2.67;;
51010;SDS011;37038;50.182;8.624;2023-05-10T10:33:27;4.68;;;2.67;;
51010;SDS011;37038;50.182;8.624;2023-05-10T10:36:19;6.13;;;3.22;;
51010;SDS011;37038;50.182;8.624;2023-05-10T10:39:11;3.67;;;2.65;;
51010;SDS011;37038;50.182;8.624;2023-05-10T10:41:59;4.78;;;3.25;;
51010;SDS011;37038;50.182;8.624;2023-05-10T10:44:47;3.92;;;2.90;;
51010;SDS011;37038;50.182;8.624;2023-05-10T10:47:35;8.13;;;3.00;;
51010;SDS011;37038;50.182;8.624;2023-05-10T10:50:24;3.58;;;2.30;;
51010;SDS011;37038;50.182;8.624;2023-05-10T10:53:12;3.55;;;3.22;;
51010;SDS011;37038;50.182;8.624;2023-05-10T10:56:07;6.05;;;2.88;;
51010;SDS011;37038;50.182;8.624;2023-05-10T10:58:58;5.50;;;2.72;;
51010;SDS011;37038;50.182;8.624;2023-05-10T11:01:46;5.88;;;2.42;;
51010;SDS011;37038;50.182;8.624;2023-05-10T11:04:42;5.05;;;3.22;;
51010;SDS011;37038;50.182;8.624;2023-05-10T11:07:33;4.75;;;3.67;;
51010;SDS011;37038;50.182;8.624;2023-05-10T11:10:22;7.15;;;3.35;;
51010;SDS011;37038;50.182;8.624;2023-05-10T11:13:10;5.55;;;3.30;;
51010;SDS011;37038;50.182;8.624;2023-05-10T11:15:59;6.10;;;3.10;;
51010;SDS011;37038;50.182;8.624;2023-05-10T11:19:05;4.05;;;2.45;;
51010;SDS011;37038;50.182;8.624;2023-05-10T11:24:58;2.78;;;2.20;;
51010;SDS011;37038;50.182;8.624;2023-05-10T11:27:49;3.50;;;2.20;;
51010;SDS011;37038;50.182;8.624;2023-05-10T11:30:40;5.55;;;1.88;;
51010;SDS011;37038;50.182;8.624;2023-05-10T11:33:36;5.15;;;2.03;;
51010;SDS011;37038;50.182;8.624;2023-05-10T11:36:36;10.35;;;1.90;;
51010;SDS011;37038;50.182;8.624;2023-05-10T11:39:35;1.35;;;1.25;;
51010;SDS011;37038;50.182;8.624;2023-05-10T11:42:22;3.30;;;1.90;;
51010;SDS011;37038;50.182;8.624;2023-05-10T11:45:10;5.25;;;2.00;;
51010;SDS011;37038;50.182;8.624;2023-05-10T11:47:58;2.95;;;1.63;;
51010;SDS011;37038;50.182;8.624;2023-05-10T11:50:46;4.68;;;1.00;;
51010;SDS011;37038;50.182;8.624;2023-05-10T11:53:35;2.50;;;1.20;;
51010;SDS011;37038;50.182;8.624;2023-05-10T11:56:23;1.90;;;0.80;;
51010;SDS011;37038;50.182;8.624;2023-05-10T11:59:13;0.95;;;0.93;;
51010;SDS011;37038;50.182;8.624;2023-05-10T12:02:01;0.93;;;0.90;;
51010;SDS011;37038;50.182;8.624;2023-05-10T12:04:50;1.13;;;1.02;;
51010;SDS011;37038;50.182;8.624;2023-05-10T12:07:41;1.50;;;0.90;;
51010;SDS011;37038;50.182;8.624;2023-05-10T12:10:29;3.85;;;1.00;;
51010;SDS011;37038;50.182;8.624;2023-05-10T12:13:22;2.03;;;1.10;;
51010;SDS011;37038;50.182;8.624;2023-05-10T12:19:24;1.13;;;0.73;;
51010;SDS011;37038;50.182;8.624;2023-05-10T12:22:20;0.80;;;0.52;;
51010;SDS011;37038;50.182;8.624;2023-05-10T12:25:11;0.70;;;0.70;;
51010;SDS011;37038;50.182;8.624;2023-05-10T12:27:59;2.60;;;0.82;;
51010;SDS011;37038;50.182;8.624;2023-05-10T12:30:49;2.08;;;1.10;;
51010;SDS011;37038;50.182;8.624;2023-05-10T12:33:42;3.60;;;1.00;;
51010;SDS011;37038;50.182;8.624;2023-05-10T12:36:31;4.55;;;0.77;;
51010;SDS011;37038;50.182;8.624;2023-05-10T12:39:19;3.33;;;0.88;;
51010;SDS011;37038;50.182;8.624;2023-05-10T12:42:16;1.38;;;0.80;;
51010;SDS011;37038;50.182;8.624;2023-05-10T12:45:18;3.60;;;0.80;;
51010;SDS011;37038;50.182;8.624;2023-05-10T12:48:06;2.30;;;1.02;;
51010;SDS011;37038;50.182;8.624;2023-05-10T12:50:55;0.50;;;0.50;;
51010;SDS011;37038;50.182;8.624;2023-05-10T12:53:43;1.80;;;0.70;;
51010;SDS011;37038;50.182;8.624;2023-05-10T12:56:35;3.80;;;0.80;;
51010;SDS011;37038;50.182;8.624;2023-05-10T12:59:30;2.45;;;0.77;;
51010;SDS011;37038;50.182;8.624;2023-05-10T13:02:27;3.17;;;0.90;;
51010;SDS011;37038;50.182;8.624;2023-05-10T13:05:20;3.80;;;1.05;;
51010;SDS011;37038;50.182;8.624;2023-05-10T13:08:11;1.50;;;0.68;;
51010;SDS011;37038;50.182;8.624;2023-05-10T13:11:03;2.00;;;0.95;;
51010;SDS011;37038;50.182;8.624;2023-05-10T13:13:56;1.60;;;0.93;;
51010;SDS011;37038;50.182;8.624;2023-05-10T13:16:45;4.18;;;0.80;;
51010;SDS011;37038;50.182;8.624;2023-05-10T13:19:33;1.48;;;0.60;;
51010;SDS011;37038;50.182;8.624;2023-05-10T13:22:24;2.80;;;1.00;;
51010;SDS011;37038;50.182;8.624;2023-05-10T13:25:26;1.95;;;0.88;;
51010;SDS011;37038;50.182;8.624;2023-05-10T13:28:15;2.00;;;0.90;;
51010;SDS011;37038;50.182;8.624;2023-05-10T13:31:03;3.78;;;1.05;;
51010;SDS011;37038;50.182;8.624;2023-05-10T13:34:04;0.95;;;0.90;;
51010;SDS011;37038;50.182;8.624;2023-05-10T13:36:56;4.47;;;1.10;;
51010;SDS011;37038;50.182;8.624;2023-05-10T13:39:46;3.58;;;1.20;;
51010;SDS011;37038;50.182;8.624;2023-05-10T13:42:34;6.30;;;2.03;;
51010;SDS011;37038;50.182;8.624;2023-05-10T13:45:22;2.42;;;1.00;;
51010;SDS011;37038;50.182;8.624;2023-05-10T13:48:10;2.83;;;0.82;;
51010;SDS011;37038;50.182;8.624;2023-05-10T13:50:58;2.13;;;1.17;;
51010;SDS011;37038;50.182;8.624;2023-05-10T13:53:46;3.90;;;1.10;;
51010;SDS011;37038;50.182;8.624;2023-05-10T13:56:34;2.42;;;1.10;;
51010;SDS011;37038;50.182;8.624;2023-05-10T13:59:22;0.75;;;0.70;;
51010;SDS011;37038;50.182;8.624;2023-05-10T14:02:10;3.15;;;0.90;;
51010;SDS011;37038;50.182;8.624;2023-05-10T14:04:59;4.95;;;1.00;;
51010;SDS011;37038;50.182;8.624;2023-05-10T14:07:47;3.55;;;0.80;;
51010;SDS011;37038;50.182;8.624;2023-05-10T14:10:35;2.75;;;1.00;;
51010;SDS011;37038;50.182;8.624;2023-05-10T14:13:23;0.85;;;0.55;;
51010;SDS011;37038;50.182;8.624;2023-05-10T14:16:12;1.02;;;0.63;;
51010;SDS011;37038;50.182;8.624;2023-05-10T14:19:01;2.88;;;0.90;;
51010;SDS011;37038;50.182;8.624;2023-05-10T14:21:51;3.90;;;0.65;;
51010;SDS011;37038;50.182;8.624;2023-05-10T14:24:38;4.30;;;0.73;;
51010;SDS011;37038;50.182;8.624;2023-05-10T14:27:31;1.30;;;0.90;;
51010;SDS011;37038;50.182;8.624;2023-05-10T14:30:21;1.75;;;1.50;;
51010;SDS011;37038;50.182;8.624;2023-05-10T14:33:10;2.65;;;0.80;;
51010;SDS011;37038;50.182;8.624;2023-05-10T14:35:58;1.60;;;1.00;;
51010;SDS011;37038;50.182;8.624;2023-05-10T14:38:47;4.70;;;1.08;;
51010;SDS011;37038;50.182;8.624;2023-05-10T14:41:36;1.33;;;0.80;;
51010;SDS011;37038;50.182;8.624;2023-05-10T14:44:26;2.45;;;0.90;;
51010;SDS011;37038;50.182;8.624;2023-05-10T14:47:14;2.65;;;1.00;;
51010;SDS011;37038;50.182;8.624;2023-05-10T14:50:02;0.60;;;0.60;;
51010;SDS011;37038;50.182;8.624;2023-05-10T14:52:55;1.92;;;0.60;;
51010;SDS011;37038;50.182;8.624;2023-05-10T14:55:43;1.38;;;0.70;;
51010;SDS011;37038;50.182;8.624;2023-05-10T14:58:31;5.03;;;1.20;;
51010;SDS011;37038;50.182;8.624;2023-05-10T15:01:22;1.15;;;0.55;;
51010;SDS011;37038;50.182;8.624;2023-05-10T15:04:17;1.10;;;0.73;;
51010;SDS011;37038;50.182;8.624;2023-05-10T15:07:14;2.50;;;0.68;;
51010;SDS011;37038;50.182;8.624;2023-05-10T15:10:06;1.05;;;0.90;;
51010;SDS011;37038;50.182;8.624;2023-05-10T15:12:55;2.58;;;0.60;;
51010;SDS011;37038;50.182;8.624;2023-05-10T15:15:42;1.08;;;0.70;;
51010;SDS011;37038;50.182;8.624;2023-05-10T15:18:31;7.32;;;0.80;;
51010;SDS011;37038;50.182;8.624;2023-05-10T15:21:22;1.15;;;0.60;;
51010;SDS011;37038;50.182;8.624;2023-05-10T15:24:09;2.28;;;0.57;;
51010;SDS011;37038;50.182;8.624;2023-05-10T15:26:57;1.38;;;0.70;;
51010;SDS011;37038;50.182;8.624;2023-05-10T15:29:45;1.27;;;0.65;;
51010;SDS011;37038;50.182;8.624;2023-05-10T15:32:36;2.78;;;0.50;;
51010;SDS011;37038;50.182;8.624;2023-05-10T15:35:26;0.93;;;0.50;;
51010;SDS011;37038;50.182;8.624;2023-05-10T15:38:14;4.18;;;0.98;;
51010;SDS011;37038;50.182;8.624;2023-05-10T15:41:03;1.75;;;0.63;;
51010;SDS011;37038;50.182;8.624;2023-05-10T15:43:53;1.55;;;0.70;;
51010;SDS011;37038;50.182;8.624;2023-05-10T15:46:43;3.08;;;0.80;;
51010;SDS011;37038;50.182;8.624;2023-05-10T15:49:43;1.13;;;0.55;;
51010;SDS011;37038;50.182;8.624;2023-05-10T15:52:41;3.92;;;0.90;;
51010;SDS011;37038;50.182;8.624;2023-05-10T15:55:34;2.38;;;0.50;;
51010;SDS011;37038;50.182;8.624;2023-05-10T15:58:24;1.15;;;0.73;;
51010;SDS011;37038;50.182;8.624;2023-05-10T16:01:15;3.05;;;0.88;;
51010;SDS011;37038;50.182;8.624;2023-05-10T16:04:06;1.23;;;0.80;;
51010;SDS011;37038;50.182;8.624;2023-05-10T16:06:57;1.92;;;0.65;;
51010;SDS011;37038;50.182;8.624;2023-05-10T16:09:45;5.75;;;0.80;;
51010;SDS011;37038;50.182;8.624;2023-05-10T16:12:35;2.35;;;1.08;;
51010;SDS011;37038;50.182;8.624;2023-05-10T16:15:24;1.48;;;0.85;;
51010;SDS011;37038;50.182;8.624;2023-05-10T16:18:16;2.90;;;1.17;;
51010;SDS011;37038;50.182;8.624;2023-05-10T16:21:05;2.30;;;0.88;;
51010;SDS011;37038;50.182;8.624;2023-05-10T16:23:55;3.65;;;1.10;;
51010;SDS011;37038;50.182;8.624;2023-05-10T16:26:43;1.48;;;0.95;;
51010;SDS011;37038;50.182;8.624;2023-05-10T16:29:31;2.63;;;1.17;;
51010;SDS011;37038;50.182;8.624;2023-05-10T16:32:20;2.67;;;1.20;;
51010;SDS011;37038;50.182;8.624;2023-05-10T16:35:11;2.05;;;1.50;;
51010;SDS011;37038;50.182;8.624;2023-05-10T16:37:59;2.47;;;1.30;;
51010;SDS011;37038;50.182;8.624;2023-05-10T16:40:49;1.95;;;1.00;;
51010;SDS011;37038;50.182;8.624;2023-05-10T16:43:37;3.53;;;1.50;;
51010;SDS011;37038;50.182;8.624;2023-05-10T16:46:38;2.92;;;1.33;;
51010;SDS011;37038;50.182;8.624;2023-05-10T16:49:26;1.98;;;0.95;;
51010;SDS011;37038;50.182;8.624;2023-05-10T16:52:17;2.50;;;1.33;;
51010;SDS011;37038;50.182;8.624;2023-05-10T16:55:04;3.58;;;1.75;;
51010;SDS011;37038;50.182;8.624;2023-05-10T16:57:52;3.80;;;1.48;;
51010;SDS011;37038;50.182;8.624;2023-05-10T17:00:45;2.08;;;0.90;;
51010;SDS011;37038;50.182;8.624;2023-05-10T17:03:33;1.92;;;1.25;;
51010;SDS011;37038;50.182;8.624;2023-05-10T17:06:24;3.28;;;1.58;;
51010;SDS011;37038;50.182;8.624;2023-05-10T17:09:13;3.28;;;1.50;;
51010;SDS011;37038;50.182;8.624;2023-05-10T17:12:06;2.20;;;1.40;;
51010;SDS011;37038;50.182;8.624;2023-05-10T17:14:54;3.95;;;1.40;;
51010;SDS011;37038;50.182;8.624;2023-05-10T17:17:42;4.30;;;1.50;;
51010;SDS011;37038;50.182;8.624;2023-05-10T17:20:30;2.92;;;1.40;;
51010;SDS011;37038;50.182;8.624;2023-05-10T17:23:18;2.60;;;1.40;;
51010;SDS011;37038;50.182;8.624;2023-05-10T17:26:06;2.17;;;1.35;;
51010;SDS011;37038;50.182;8.624;2023-05-10T17:28:55;3.53;;;1.45;;
51010;SDS011;37038;50.182;8.624;2023-05-10T17:31:57;3.17;;;1.33;;
51010;SDS011;37038;50.182;8.624;2023-05-10T17:34:45;4.47;;;1.23;;
51010;SDS011;37038;50.182;8.624;2023-05-10T17:37:33;6.53;;;1.42;;
51010;SDS011;37038;50.182;8.624;2023-05-10T17:40:24;2.63;;;1.58;;